SIK weather

Sikeston Memorial Municipal Airport
Sikeston, Missouri, United States

Public forecast

Using degrees Fahrenheit for public forecast. Weather courtesy of forecast.io.

Current aviation weather report (METAR) for Sikeston Memorial Municipal Airport

Retrieved 2020/07/08 08:35 UTC (3 minutes ago):

KSIK 080835Z AUTO 00000KT 10SM CLR 24/23 A2993 RMK AO2

Closest aviation forecast (TAF) to Sikeston Memorial Municipal Airport

Closest forecast is Cape Girardeau Regional Airport, 19.6 nm (36.3 km) N. Retrieved 2020/07/08 06:22 UTC (2 hours ago):

TAF KCGI 080520Z 0806/0906 00000KT P6SM FEW250 TEMPO 0810/0812 4SM BR FM081400 00000KT P6SM FEW045 FEW250 FM081700 VRB03KT P6SM VCTS FEW040CB SCT250 FM082200 VRB04KT P6SM FEW045 SCT200